KGAD/GAD METAR and TAF weather

Enter ICAO airport designator
Station Type Date Time Source
KGAD METAR 2021/03/08 14:56 UTC NOAA

KGAD 081456Z AUTO 05006KT 10SM CLR 09/00 A3059 RMK AO2 SLP366 T00940000 51018


Station Type Date Time Source
KGAD Decoded METAR 2021/03/08 14:56 UTC NOAA

Gadsden, Gadsden Municipal Airport, AL, United States (KGAD) 33-58N 086-05W
Mar 08, 2021 - 09:56 AM EST / 2021.03.08 1456 UTC
Wind: from the NE (050 degrees) at 7 MPH (6 KT):0
Visibility: 10 mile(s):0
Sky conditions: clear
Temperature: 48.9 F (9.4 C)
Dew Point: 32.0 F (0.0 C)
Relative Humidity: 51%
Pressure (altimeter): 30.59 in. Hg (1035 hPa)
Pressure tendency: 0.05 inches (1.8 hPa) higher than three hours ago
ob: KGAD 081456Z AUTO 05006KT 10SM CLR 09/00 A3059 RMK AO2 SLP366 T00940000 51018
cycle: 15

Station Type Date Time Source
KGAD TAF UTC NOAA

Error!

Example: see airport list